Lewistown, MT

3:43 AM MDT on July 24, 2017 (GMT -0600)
3rd Ave S Lewistown | | Change Station
Active Advisory: Special Statement

Elev 3927 ft 47.06 °N, 109.42 °W | Updated 1 second ago

Clear
Clear
57.5 °F
Feels Like 57.5 °F
N
1.0
Wind Variable Wind from SE
Gusts 3.0 mph

Today
High -- | Low -- °F
--% Chance of Precip.
Yesterday
High -- | Low -- °F
Precip. -- in
Pressure 29.72 in
Visibility 10.0 miles
Clouds Clear
Dew Point 44 °F
Humidity 61%
Rainfall 0.00 in
Snow Depth Not available.
5:47 AM 9:00 PM
New Moon, 1% visible
METAR KLWT 240854Z AUTO 00000KT 10SM CLR 20/03 A2987 RMK AO2 SLP062 T02000028 53005
Pressure 29.72 in
Visibility 10.0 miles
Clouds Clear
Dew Point 44 °F
Humidity 61%
Rainfall 0.00 in
Snow Depth Not available.
5:47 AM 9:00 PM
New Moon, 1% visible
METAR KLWT 240854Z AUTO 00000KT 10SM CLR 20/03 A2987 RMK AO2 SLP062 T02000028 53005

Get Your Daily Forecast Email!

Thanks for signing up!

Be on the lookout for a verification email in your inbox.

You'll start receiving severe weather alerts in your inbox..

×

10-Day Weather Forecast

Almanac

Astronomy

Jul. 24, 2017 Rise Set
Actual Time
Civil Twilight
Nautical Twilight
Astronomical Twilight
Moon
Length of Visible Light
Length of Day
Tomorrow will be .
, % of the Moon is Illuminated

Today's Extremes

State Highs State Lows

Community

WunderPhotos

Category 6

Welcome to Category 6. This is the collective home for Weather Underground's featured writeups by Dr. Jeff Masters (right), Bob Henson (left), Chris Burt, and other regular contributors.

Nearby

Air Quality

  Air Quality AQ Index Pollutant
Not available.

Snow Depth

Station Depth Elevation

Earthquake Activity

City Distance Mag. Time & Date
Minimum magnitude displayed is 2.5.

Coastal Water Temperatures

Place Temperature

Stations

Nearby Weather Stations

Station Location Temp. Windchill Dew Point Humidity Wind Precip. Elev Updated Type
                   

Watches & Warnings

Special Statement
Issued: 3:29 AM MDT Jul. 24, 2017 – National Weather Service

A wind shift will move south through the region for the next few
hours. Expect winds to shift to the north with sustained winds of
30 to 40 mph gusting to near 50 mph at times. Winds are expected
to diminish during the morning hours.


Klg

329 am MDT Mon Jul 24 2017

A wind shift will move south through the region for the next few
hours. Expect winds to shift to the north with sustained winds of
30 to 40 mph gusting to near 50 mph at times. Winds are expected
to diminish during the morning hours.


Klg